createdAt,value
2018-05-27T00:00:08.969Z,14.18
2018-05-27T00:01:15.338Z,14.18
2018-05-27T00:02:21.707Z,14.22
2018-05-27T00:03:28.586Z,14.28
2018-05-27T00:04:34.928Z,14.29
2018-05-27T00:05:41.303Z,14.29
2018-05-27T00:06:47.667Z,14.27
2018-05-27T00:07:54.046Z,14.27
2018-05-27T00:09:00.452Z,14.27
2018-05-27T00:10:06.279Z,14.27
2018-05-27T00:11:12.653Z,14.27
2018-05-27T00:12:19.039Z,14.24
2018-05-27T00:13:25.399Z,14.21
2018-05-27T00:14:31.756Z,14.18
2018-05-27T00:15:38.110Z,14.16
2018-05-27T00:16:44.975Z,14.08
2018-05-27T00:17:50.844Z,14.08
2018-05-27T00:18:57.231Z,14.14
2018-05-27T00:20:03.568Z,14.14
2018-05-27T00:21:10.420Z,14.07
2018-05-27T00:22:16.274Z,14.01
2018-05-27T00:23:23.185Z,13.96
2018-05-27T00:24:28.994Z,13.90
2018-05-27T00:25:35.360Z,13.87
2018-05-27T00:26:41.722Z,13.93
2018-05-27T00:27:48.094Z,13.99
2018-05-27T00:28:55.474Z,14.05
2018-05-27T00:30:01.301Z,14.11
2018-05-27T00:31:07.164Z,14.09
2018-05-27T00:32:13.521Z,14.10
2018-05-27T00:33:20.399Z,14.07
2018-05-27T00:34:26.265Z,13.99
2018-05-27T00:35:32.590Z,13.93
2018-05-27T00:36:38.956Z,13.87
2018-05-27T00:37:45.314Z,13.79
2018-05-27T00:38:51.699Z,13.79
2018-05-27T00:39:58.027Z,13.83
2018-05-27T00:41:04.373Z,13.86
2018-05-27T00:42:10.732Z,13.86
2018-05-27T00:43:17.105Z,13.88
2018-05-27T00:44:23.458Z,13.84
2018-05-27T00:45:29.799Z,13.84
2018-05-27T00:46:36.156Z,13.87
2018-05-27T00:47:42.503Z,13.91
2018-05-27T00:48:48.884Z,13.94
2018-05-27T00:49:55.274Z,13.91
2018-05-27T00:51:01.601Z,13.89
2018-05-27T00:52:07.925Z,13.85
2018-05-27T00:53:15.277Z,13.84
2018-05-27T00:54:20.651Z,13.86
2018-05-27T00:55:26.979Z,13.91
2018-05-27T00:56:33.328Z,13.92
2018-05-27T00:57:39.678Z,13.95
2018-05-27T00:58:46.045Z,13.88
2018-05-27T00:59:52.380Z,13.79
2018-05-27T01:00:58.730Z,13.69
2018-05-27T01:02:05.566Z,13.67
2018-05-27T01:03:11.456Z,13.67
2018-05-27T01:04:18.300Z,13.62
2018-05-27T01:05:24.140Z,13.55
2018-05-27T01:06:30.473Z,13.52
2018-05-27T01:07:36.819Z,13.56
2018-05-27T01:08:43.199Z,13.59
2018-05-27T01:09:50.026Z,13.59
2018-05-27T01:10:55.884Z,13.56
2018-05-27T01:12:02.238Z,13.58
2018-05-27T01:13:08.596Z,13.58
2018-05-27T01:14:14.948Z,13.55
2018-05-27T01:15:21.283Z,13.48
2018-05-27T01:16:27.624Z,13.40
2018-05-27T01:17:33.973Z,13.36
2018-05-27T01:18:40.342Z,13.35
2018-05-27T01:19:46.674Z,13.40
2018-05-27T01:20:53.009Z,13.43
2018-05-27T01:21:59.354Z,13.38
2018-05-27T01:23:05.696Z,13.34
2018-05-27T01:24:12.087Z,13.31
2018-05-27T01:25:19.393Z,13.27
2018-05-27T01:26:24.725Z,13.30
2018-05-27T01:27:31.089Z,13.36
2018-05-27T01:28:37.425Z,13.36
2018-05-27T01:29:43.781Z,13.36
2018-05-27T01:30:50.597Z,13.36
2018-05-27T01:31:56.572Z,13.33
2018-05-27T01:33:02.795Z,13.33
2018-05-27T01:34:09.158Z,13.28
2018-05-27T01:35:15.474Z,13.29
2018-05-27T01:36:21.819Z,13.32
2018-05-27T01:37:28.153Z,13.35
2018-05-27T01:38:35.004Z,13.34
2018-05-27T01:39:40.859Z,13.35
2018-05-27T01:40:47.179Z,13.36
2018-05-27T01:41:53.544Z,13.35
2018-05-27T01:42:59.856Z,13.36
2018-05-27T01:44:06.216Z,13.36
2018-05-27T01:45:12.530Z,13.37
2018-05-27T01:46:18.877Z,13.38
2018-05-27T01:47:25.215Z,13.36
2018-05-27T01:48:31.550Z,13.34
2018-05-27T01:49:37.915Z,13.30
2018-05-27T01:50:44.214Z,13.30
2018-05-27T01:51:51.060Z,13.23
2018-05-27T01:52:56.915Z,13.15
2018-05-27T01:54:04.269Z,13.13
2018-05-27T01:55:09.572Z,13.07
2018-05-27T01:56:16.394Z,13.04
2018-05-27T01:57:22.243Z,13.01
2018-05-27T01:58:28.591Z,13.01
2018-05-27T01:59:35.921Z,13.01
2018-05-27T02:00:41.244Z,13.02
2018-05-27T02:01:47.575Z,12.98
2018-05-27T02:02:53.920Z,12.99
2018-05-27T02:04:00.272Z,13.06
2018-05-27T02:05:08.075Z,13.23
2018-05-27T02:06:12.926Z,13.35
2018-05-27T02:07:19.253Z,13.41
2018-05-27T02:08:25.595Z,13.33
2018-05-27T02:09:31.957Z,13.28
2018-05-27T02:10:38.261Z,13.18
2018-05-27T02:11:44.606Z,13.06
2018-05-27T02:12:50.930Z,12.99
2018-05-27T02:13:57.295Z,12.98
2018-05-27T02:15:03.605Z,13.03
2018-05-27T02:16:10.939Z,13.06
2018-05-27T02:17:16.283Z,13.06
2018-05-27T02:18:22.607Z,13.03
2018-05-27T02:19:29.461Z,12.94
2018-05-27T02:20:35.305Z,12.88
2018-05-27T02:21:41.634Z,12.86
2018-05-27T02:22:47.947Z,12.92
2018-05-27T02:23:54.299Z,12.91
2018-05-27T02:25:01.111Z,12.91
2018-05-27T02:26:06.948Z,12.88
2018-05-27T02:27:13.277Z,12.81
2018-05-27T02:28:19.601Z,12.78
2018-05-27T02:29:25.966Z,12.72
2018-05-27T02:30:32.281Z,12.69
2018-05-27T02:31:38.606Z,12.66
2018-05-27T02:32:44.944Z,12.62
2018-05-27T02:33:51.272Z,12.63
2018-05-27T02:34:57.625Z,12.77
2018-05-27T02:36:03.936Z,12.85
2018-05-27T02:37:10.266Z,12.85
2018-05-27T02:38:16.591Z,12.89
2018-05-27T02:39:22.943Z,12.84
2018-05-27T02:40:29.242Z,12.79
2018-05-27T02:41:36.076Z,12.73
2018-05-27T02:42:41.911Z,12.68
2018-05-27T02:43:48.721Z,12.68
2018-05-27T02:44:54.587Z,12.71
2018-05-27T02:46:00.882Z,12.74
2018-05-27T02:47:07.208Z,12.81
2018-05-27T02:48:13.543Z,12.82
2018-05-27T02:49:19.899Z,12.88
2018-05-27T02:50:26.204Z,12.85
2018-05-27T02:51:32.530Z,12.78
2018-05-27T02:52:38.852Z,12.72
2018-05-27T02:53:45.676Z,12.71
2018-05-27T02:54:52.029Z,12.72
2018-05-27T02:55:57.832Z,12.84
2018-05-27T02:57:04.164Z,12.82
2018-05-27T02:58:10.490Z,12.74
2018-05-27T02:59:16.851Z,12.73
2018-05-27T03:00:23.155Z,12.80
2018-05-27T03:01:29.460Z,12.89
2018-05-27T03:02:35.786Z,12.86
2018-05-27T03:03:42.119Z,12.78
2018-05-27T03:04:48.544Z,12.78
2018-05-27T03:05:54.773Z,12.78
2018-05-27T03:07:01.105Z,12.77
2018-05-27T03:08:07.928Z,12.79
2018-05-27T03:09:13.764Z,12.77
2018-05-27T03:10:20.073Z,12.74
2018-05-27T03:11:26.901Z,12.67
2018-05-27T03:12:32.729Z,12.62
2018-05-27T03:13:39.541Z,12.62
2018-05-27T03:14:45.890Z,12.62
2018-05-27T03:15:51.717Z,12.58
2018-05-27T03:16:58.029Z,12.53
2018-05-27T03:18:04.362Z,12.51
2018-05-27T03:19:10.702Z,12.49
2018-05-27T03:20:16.996Z,12.50
2018-05-27T03:21:23.343Z,12.56
2018-05-27T03:22:29.675Z,12.63
2018-05-27T03:23:35.972Z,12.66
2018-05-27T03:24:42.322Z,12.66
2018-05-27T03:25:49.809Z,12.68
2018-05-27T03:26:54.958Z,12.85
2018-05-27T03:28:01.280Z,12.85
2018-05-27T03:29:07.628Z,12.84
2018-05-27T03:30:13.961Z,12.83
2018-05-27T03:31:20.250Z,12.92
2018-05-27T03:32:26.582Z,12.96
2018-05-27T03:33:32.911Z,13.08
2018-05-27T03:34:39.251Z,13.17
2018-05-27T03:35:45.563Z,13.28
2018-05-27T03:36:52.386Z,13.32
2018-05-27T03:37:58.221Z,13.34
2018-05-27T03:39:04.539Z,13.30
2018-05-27T03:40:10.893Z,13.37
2018-05-27T03:41:17.212Z,13.43
2018-05-27T03:42:23.535Z,13.43
2018-05-27T03:43:30.381Z,13.38
2018-05-27T03:44:36.224Z,13.35
2018-05-27T03:45:42.563Z,13.33
2018-05-27T03:46:48.883Z,13.33
2018-05-27T03:47:55.222Z,13.50
2018-05-27T03:49:01.568Z,13.66
2018-05-27T03:50:07.917Z,13.78
2018-05-27T03:51:14.237Z,13.91
2018-05-27T03:52:20.577Z,13.92
2018-05-27T03:53:27.520Z,13.86
2018-05-27T03:54:33.287Z,13.90
2018-05-27T03:55:39.605Z,14.07
2018-05-27T03:56:45.961Z,14.36
2018-05-27T03:57:52.317Z,14.60
2018-05-27T03:58:58.649Z,14.82
2018-05-27T04:00:05.020Z,14.97
2018-05-27T04:01:11.351Z,15.14
2018-05-27T04:02:17.737Z,15.27
2018-05-27T04:03:24.055Z,15.39
2018-05-27T04:04:30.431Z,15.48
2018-05-27T04:05:36.769Z,15.56
2018-05-27T04:06:43.127Z,15.61
2018-05-27T04:07:49.490Z,15.69
2018-05-27T04:08:55.869Z,15.70
2018-05-27T04:10:02.248Z,15.55
2018-05-27T04:11:08.649Z,15.35
2018-05-27T04:12:14.973Z,15.15
2018-05-27T04:13:21.335Z,15.03
2018-05-27T04:14:27.718Z,14.95
2018-05-27T04:15:34.073Z,14.89
2018-05-27T04:16:40.445Z,14.86
2018-05-27T04:17:46.825Z,14.96
2018-05-27T04:18:53.198Z,15.08
2018-05-27T04:19:59.602Z,15.17
2018-05-27T04:21:05.937Z,15.20
2018-05-27T04:22:12.314Z,15.30
2018-05-27T04:23:18.707Z,15.41
2018-05-27T04:24:25.070Z,15.46
2018-05-27T04:25:31.469Z,15.35
2018-05-27T04:26:37.815Z,15.40
2018-05-27T04:27:44.195Z,15.49
2018-05-27T04:28:51.077Z,15.59
2018-05-27T04:29:57.542Z,15.65
2018-05-27T04:31:03.341Z,15.75
2018-05-27T04:32:09.725Z,15.85
2018-05-27T04:33:16.110Z,15.94
2018-05-27T04:34:23.555Z,16.01
2018-05-27T04:35:28.900Z,16.07
2018-05-27T04:36:35.276Z,16.11
2018-05-27T04:37:41.666Z,16.33
2018-05-27T04:38:48.041Z,16.54
2018-05-27T04:39:54.466Z,16.71
2018-05-27T04:41:00.844Z,16.87
2018-05-27T04:42:07.234Z,17.01
2018-05-27T04:43:14.647Z,17.17
2018-05-27T04:44:20.044Z,17.30
2018-05-27T04:45:26.476Z,17.40
2018-05-27T04:46:32.873Z,17.52
2018-05-27T04:47:39.292Z,17.63
2018-05-27T04:48:45.711Z,17.77
2018-05-27T04:49:52.170Z,17.97
2018-05-27T04:50:58.568Z,18.17
2018-05-27T04:52:05.023Z,18.36
2018-05-27T04:53:11.954Z,18.55
2018-05-27T04:54:18.407Z,18.75
2018-05-27T04:55:24.389Z,18.90
2018-05-27T04:56:30.813Z,19.05
2018-05-27T04:57:37.281Z,19.18
2018-05-27T04:58:43.738Z,19.31
2018-05-27T04:59:50.233Z,19.41
2018-05-27T05:00:56.692Z,19.51
2018-05-27T05:02:03.170Z,19.63
2018-05-27T05:03:09.654Z,19.74
2018-05-27T05:04:16.148Z,19.84
2018-05-27T05:05:22.656Z,19.96
2018-05-27T05:06:29.140Z,20.01
2018-05-27T05:07:35.648Z,20.09
2018-05-27T05:08:42.140Z,20.18
2018-05-27T05:09:48.682Z,20.28
2018-05-27T05:10:55.164Z,20.40
2018-05-27T05:12:01.677Z,20.46
2018-05-27T05:13:08.201Z,20.51
2018-05-27T05:14:14.709Z,20.60
2018-05-27T05:15:21.263Z,20.63
2018-05-27T05:16:27.759Z,20.62
2018-05-27T05:17:34.799Z,20.63
2018-05-27T05:18:40.822Z,20.65
2018-05-27T05:19:47.391Z,20.69
2018-05-27T05:20:53.901Z,20.69
2018-05-27T05:22:00.973Z,20.70
2018-05-27T05:23:06.984Z,20.74
2018-05-27T05:24:13.520Z,20.78
2018-05-27T05:25:20.086Z,20.81
2018-05-27T05:26:26.598Z,20.85
2018-05-27T05:27:33.638Z,20.88
2018-05-27T05:28:40.194Z,20.86
2018-05-27T05:29:46.245Z,20.84
2018-05-27T05:30:52.806Z,20.77
2018-05-27T05:31:59.815Z,20.66
2018-05-27T05:33:05.865Z,20.60
2018-05-27T05:34:12.420Z,20.49
2018-05-27T05:35:19.485Z,20.38
2018-05-27T05:36:25.546Z,20.24
2018-05-27T05:37:32.033Z,20.14
2018-05-27T05:38:38.568Z,20.08
2018-05-27T05:39:45.112Z,20.00
2018-05-27T05:40:51.667Z,19.96
2018-05-27T05:41:58.189Z,19.91
2018-05-27T05:43:04.708Z,19.86
2018-05-27T05:44:11.245Z,19.83
2018-05-27T05:45:17.822Z,19.83
2018-05-27T05:46:24.822Z,19.82
2018-05-27T05:47:30.867Z,19.82
2018-05-27T05:48:37.396Z,19.86
2018-05-27T05:49:43.931Z,19.90
2018-05-27T05:50:50.499Z,19.93
2018-05-27T05:51:57.012Z,19.94
2018-05-27T05:53:03.551Z,19.93
2018-05-27T05:54:10.084Z,19.91
2018-05-27T05:55:17.133Z,19.89
2018-05-27T05:56:23.183Z,19.90
2018-05-27T05:57:29.710Z,19.91
2018-05-27T05:58:36.241Z,19.95
2018-05-27T05:59:42.793Z,20.00
2018-05-27T06:00:49.335Z,20.09
2018-05-27T06:01:56.355Z,20.16
2018-05-27T06:03:02.890Z,20.26
2018-05-27T06:04:09.521Z,20.36
2018-05-27T06:05:15.501Z,20.43
2018-05-27T06:06:22.077Z,20.52
2018-05-27T06:07:28.597Z,20.62
2018-05-27T06:08:36.134Z,20.73
2018-05-27T06:09:41.689Z,20.83
2018-05-27T06:10:48.767Z,20.90
2018-05-27T06:11:54.805Z,20.92
2018-05-27T06:13:01.372Z,20.97
2018-05-27T06:14:07.927Z,21.05
2018-05-27T06:15:14.503Z,21.13
2018-05-27T06:16:21.082Z,21.21
2018-05-27T06:17:28.114Z,21.28
2018-05-27T06:18:34.191Z,21.28
2018-05-27T06:19:40.799Z,21.27
2018-05-27T06:20:47.312Z,21.24
2018-05-27T06:21:53.904Z,21.20
2018-05-27T06:23:00.450Z,21.13
2018-05-27T06:24:07.014Z,21.07
2018-05-27T06:25:13.600Z,21.07
2018-05-27T06:26:20.175Z,21.05
2018-05-27T06:27:26.714Z,21.08
2018-05-27T06:28:33.276Z,21.09
2018-05-27T06:29:39.856Z,21.10
2018-05-27T06:30:46.418Z,21.12
2018-05-27T06:31:53.015Z,21.14
2018-05-27T06:32:59.560Z,21.18
2018-05-27T06:34:07.320Z,21.26
2018-05-27T06:35:12.716Z,21.32
2018-05-27T06:36:19.293Z,21.37
2018-05-27T06:37:25.896Z,21.38
2018-05-27T06:38:32.458Z,21.42
2018-05-27T06:39:40.040Z,21.46
2018-05-27T06:40:45.627Z,21.53
2018-05-27T06:41:52.245Z,21.58
2018-05-27T06:42:58.813Z,21.62
2018-05-27T06:44:05.411Z,21.63
2018-05-27T06:45:12.001Z,21.63
2018-05-27T06:46:18.598Z,21.65
2018-05-27T06:47:25.218Z,21.65
2018-05-27T06:48:31.793Z,21.68
2018-05-27T06:49:39.397Z,21.72
2018-05-27T06:50:44.999Z,21.72
2018-05-27T06:51:52.132Z,21.70
2018-05-27T06:52:58.225Z,21.73
2018-05-27T06:54:04.826Z,21.73
2018-05-27T06:55:11.522Z,21.76
2018-05-27T06:56:18.037Z,21.80
2018-05-27T06:57:24.668Z,21.83
2018-05-27T06:58:31.265Z,21.89
2018-05-27T06:59:37.851Z,21.92
2018-05-27T07:00:44.459Z,21.98
2018-05-27T07:01:52.082Z,22.03
2018-05-27T07:02:57.725Z,22.04
2018-05-27T07:04:04.305Z,22.09
2018-05-27T07:05:10.916Z,22.14
2018-05-27T07:06:17.537Z,22.12
2018-05-27T07:07:24.164Z,22.14
2018-05-27T07:08:30.767Z,22.24
2018-05-27T07:09:37.395Z,22.26
2018-05-27T07:10:44.001Z,22.32
2018-05-27T07:11:50.629Z,22.42
2018-05-27T07:12:57.274Z,22.57
2018-05-27T07:14:04.174Z,22.67
2018-05-27T07:15:10.985Z,22.88
2018-05-27T07:16:17.121Z,22.99
2018-05-27T07:17:24.784Z,23.42
2018-05-27T07:18:30.391Z,25.79
2018-05-27T07:19:37.009Z,27.93
2018-05-27T07:20:43.641Z,28.06
2018-05-27T07:21:50.275Z,27.88
2018-05-27T07:22:56.916Z,27.55
2018-05-27T07:24:04.032Z,26.51
2018-05-27T07:25:10.178Z,25.63
2018-05-27T07:26:16.795Z,25.72
2018-05-27T07:27:23.946Z,27.08
2018-05-27T07:28:30.089Z,27.82
2018-05-27T07:29:36.710Z,27.18
2018-05-27T07:31:50.013Z,25.91
2018-05-27T07:32:56.640Z,25.74
2018-05-27T07:34:03.260Z,25.57
2018-05-27T07:35:09.907Z,25.15
2018-05-27T07:36:16.543Z,24.80
2018-05-27T07:37:23.684Z,24.63
2018-05-27T07:38:29.870Z,24.34
2018-05-27T07:39:36.491Z,24.15
2018-05-27T07:40:43.167Z,24.04
2018-05-27T07:41:49.802Z,24.05
2018-05-27T07:42:56.474Z,23.96
2018-05-27T07:44:03.648Z,24.00
2018-05-27T07:45:10.268Z,23.97
2018-05-27T07:46:16.425Z,23.99
2018-05-27T07:47:23.094Z,24.09
2018-05-27T07:48:29.771Z,24.05
2018-05-27T07:49:36.410Z,24.07
2018-05-27T07:50:43.085Z,24.11
2018-05-27T07:51:49.759Z,24.13
2018-05-27T07:52:56.913Z,24.10
2018-05-27T07:54:03.119Z,24.12
2018-05-27T07:55:09.778Z,24.06
2018-05-27T07:56:16.952Z,24.06
2018-05-27T07:57:23.147Z,24.03
2018-05-27T07:58:29.860Z,24.00
2018-05-27T07:59:36.478Z,23.92
2018-05-27T08:00:43.165Z,23.86
2018-05-27T08:01:49.850Z,23.89
2018-05-27T08:02:56.543Z,23.87
2018-05-27T08:04:03.236Z,23.87
2018-05-27T08:05:10.411Z,23.92
2018-05-27T08:06:16.608Z,23.98
2018-05-27T08:07:23.293Z,24.00
2018-05-27T08:08:29.973Z,24.10
2018-05-27T08:09:36.695Z,24.18
2018-05-27T08:10:43.390Z,24.26
2018-05-27T08:11:50.087Z,24.30
2018-05-27T08:12:56.791Z,24.34
2018-05-27T08:14:03.528Z,24.38
2018-05-27T08:15:10.218Z,24.44
2018-05-27T08:16:16.940Z,24.50
2018-05-27T08:17:23.683Z,24.60
2018-05-27T08:18:30.416Z,24.76
2018-05-27T08:19:37.192Z,25.06
2018-05-27T08:20:43.913Z,25.39
2018-05-27T08:21:50.677Z,25.82
2018-05-27T08:22:57.529Z,26.09
2018-05-27T08:24:04.733Z,26.13
2018-05-27T08:25:10.996Z,26.17
2018-05-27T08:26:17.764Z,26.11
2018-05-27T08:27:24.529Z,25.93
2018-05-27T08:28:31.294Z,25.81
2018-05-27T08:29:38.089Z,25.68
2018-05-27T08:30:44.827Z,25.56
2018-05-27T08:31:51.589Z,25.31
2018-05-27T08:32:58.356Z,25.35
2018-05-27T08:34:05.102Z,25.38
2018-05-27T08:35:11.888Z,25.39
2018-05-27T08:36:18.628Z,25.42
2018-05-27T08:37:25.398Z,25.40
2018-05-27T08:38:32.155Z,25.30
2018-05-27T08:39:38.935Z,25.18
2018-05-27T08:40:45.662Z,25.08
2018-05-27T08:41:52.426Z,25.09
2018-05-27T08:42:59.180Z,25.18
2018-05-27T08:44:05.940Z,25.18
2018-05-27T08:45:12.713Z,25.15
2018-05-27T08:46:19.533Z,25.19
2018-05-27T08:47:26.211Z,25.32
2018-05-27T08:48:32.967Z,25.55
2018-05-27T08:49:39.738Z,25.86
2018-05-27T08:50:46.485Z,26.20
2018-05-27T08:51:53.266Z,26.75
2018-05-27T08:53:00.067Z,27.11
2018-05-27T08:54:06.868Z,27.55
2018-05-27T08:55:13.672Z,28.03
2018-05-27T08:56:20.480Z,28.65
2018-05-27T08:57:27.793Z,29.20
2018-05-27T08:58:34.661Z,29.57
2018-05-27T08:59:41.021Z,29.64
2018-05-27T09:00:47.864Z,29.78
2018-05-27T09:01:54.730Z,29.85
2018-05-27T09:03:01.608Z,29.65
2018-05-27T09:04:08.471Z,29.24
2018-05-27T09:05:15.372Z,29.03
2018-05-27T09:06:22.714Z,28.69
2018-05-27T09:07:29.097Z,28.20
2018-05-27T09:08:35.947Z,27.77
2018-05-27T09:09:43.339Z,27.35
2018-05-27T09:10:49.668Z,27.12
2018-05-27T09:11:56.490Z,26.86
2018-05-27T09:13:03.312Z,26.59
2018-05-27T09:14:10.151Z,26.44
2018-05-27T09:15:17.029Z,26.37
2018-05-27T09:16:23.787Z,26.27
2018-05-27T09:17:30.583Z,26.17
2018-05-27T09:18:37.397Z,26.13
2018-05-27T09:19:44.201Z,26.16
2018-05-27T09:20:51.045Z,26.14
2018-05-27T09:21:57.812Z,26.19
2018-05-27T09:23:04.607Z,26.19
2018-05-27T09:24:11.411Z,26.21
2018-05-27T09:25:18.242Z,26.25
2018-05-27T09:26:25.011Z,26.28
2018-05-27T09:27:31.820Z,26.40
2018-05-27T09:28:39.123Z,26.46
2018-05-27T09:29:45.921Z,26.55
2018-05-27T09:30:52.256Z,26.61
2018-05-27T09:31:59.561Z,26.62
2018-05-27T09:33:06.313Z,26.47
2018-05-27T09:34:12.627Z,26.26
2018-05-27T09:35:19.446Z,26.24
2018-05-27T09:36:26.244Z,26.21
2018-05-27T09:37:33.042Z,26.25
2018-05-27T09:38:39.837Z,26.41
2018-05-27T09:39:46.647Z,26.45
2018-05-27T09:40:53.549Z,26.49
2018-05-27T09:42:00.242Z,26.45
2018-05-27T09:43:07.049Z,26.29
2018-05-27T09:44:13.857Z,26.15
2018-05-27T09:45:20.710Z,26.15
2018-05-27T09:46:27.550Z,26.22
2018-05-27T09:47:34.258Z,26.41
2018-05-27T09:48:41.106Z,26.59
2018-05-27T09:49:47.883Z,26.82
2018-05-27T09:50:54.721Z,27.00
2018-05-27T09:52:01.523Z,27.06
2018-05-27T09:53:08.350Z,27.04
2018-05-27T09:54:15.167Z,26.99
2018-05-27T09:55:22.028Z,26.93
2018-05-27T09:56:29.335Z,27.03
2018-05-27T09:57:35.707Z,27.15
2018-05-27T09:58:42.782Z,27.23
2018-05-27T09:59:49.521Z,27.43
2018-05-27T10:00:56.365Z,27.65
2018-05-27T10:02:03.737Z,27.86
2018-05-27T10:03:10.170Z,27.92
2018-05-27T10:04:17.084Z,27.99
2018-05-27T10:05:24.037Z,28.29
2018-05-27T10:06:30.985Z,28.49
2018-05-27T10:07:38.405Z,28.66
2018-05-27T10:08:45.360Z,29.13
2018-05-27T10:09:51.851Z,29.62
2018-05-27T10:10:58.849Z,29.79
2018-05-27T10:12:05.834Z,29.78
2018-05-27T10:13:12.850Z,29.99
2018-05-27T10:14:19.861Z,29.92
2018-05-27T10:15:26.893Z,30.02
2018-05-27T10:16:33.924Z,30.12
2018-05-27T10:17:40.937Z,30.25
2018-05-27T10:18:47.990Z,30.47
2018-05-27T10:19:55.025Z,30.59
2018-05-27T10:21:02.099Z,30.73
2018-05-27T10:22:09.622Z,30.84
2018-05-27T10:23:16.686Z,30.76
2018-05-27T10:24:23.242Z,30.75
2018-05-27T10:25:30.800Z,30.72
2018-05-27T10:26:37.389Z,30.75
2018-05-27T10:27:44.429Z,30.95
2018-05-27T10:28:51.482Z,30.95
2018-05-27T10:29:59.050Z,30.83
2018-05-27T10:31:05.640Z,30.52
2018-05-27T10:32:12.683Z,30.61
2018-05-27T10:33:20.249Z,30.75
2018-05-27T10:34:26.826Z,30.74
2018-05-27T10:35:33.897Z,30.76
2018-05-27T10:36:41.009Z,30.49
2018-05-27T10:37:48.050Z,30.27
2018-05-27T10:38:55.130Z,30.28
2018-05-27T10:40:02.235Z,30.29
2018-05-27T10:41:09.332Z,30.23
2018-05-27T10:42:16.402Z,30.12
2018-05-27T10:43:23.490Z,30.13
2018-05-27T10:44:30.584Z,30.24
2018-05-27T10:45:37.692Z,30.47
2018-05-27T10:46:44.817Z,30.61
2018-05-27T10:47:51.981Z,30.92
2018-05-27T10:48:59.015Z,31.17
2018-05-27T10:50:06.144Z,31.43
2018-05-27T10:51:13.301Z,31.75
2018-05-27T10:52:20.407Z,32.03
2018-05-27T10:53:27.571Z,32.03
2018-05-27T10:54:34.704Z,31.92
2018-05-27T10:55:41.867Z,31.92
2018-05-27T10:56:49.033Z,31.89
2018-05-27T10:57:56.144Z,31.62
2018-05-27T10:59:03.278Z,31.28
2018-05-27T11:00:10.905Z,31.14
2018-05-27T11:01:17.561Z,31.07
2018-05-27T11:02:24.645Z,30.78
2018-05-27T11:03:31.780Z,30.47
2018-05-27T11:04:38.882Z,30.00
2018-05-27T11:05:45.953Z,29.69
2018-05-27T11:06:54.044Z,29.40
2018-05-27T11:08:01.092Z,29.20
2018-05-27T11:09:07.155Z,28.98
2018-05-27T11:10:14.223Z,28.74
2018-05-27T11:11:21.813Z,28.60
2018-05-27T11:12:28.504Z,28.58
2018-05-27T11:13:35.542Z,28.51
2018-05-27T11:14:42.686Z,28.33
2018-05-27T11:15:50.807Z,28.28
2018-05-27T11:16:57.546Z,28.15
2018-05-27T11:18:04.095Z,28.02
2018-05-27T11:19:11.248Z,27.98
2018-05-27T11:20:18.428Z,27.88
2018-05-27T11:21:25.662Z,27.91
2018-05-27T11:22:32.904Z,27.97
2018-05-27T11:23:40.242Z,27.95
2018-05-27T11:24:47.593Z,28.10
2018-05-27T11:25:55.006Z,28.37
2018-05-27T11:27:02.503Z,28.51
2018-05-27T11:28:10.038Z,28.64
2018-05-27T11:29:17.631Z,28.70
2018-05-27T11:30:25.781Z,28.86
2018-05-27T11:31:33.027Z,29.05
2018-05-27T11:32:40.766Z,29.38
2018-05-27T11:33:48.529Z,29.64
2018-05-27T11:34:56.369Z,29.75
2018-05-27T11:36:04.240Z,29.94
2018-05-27T11:37:12.172Z,30.12
2018-05-27T11:38:20.109Z,30.33
2018-05-27T11:39:28.037Z,30.39
2018-05-27T11:40:35.981Z,30.32
2018-05-27T11:41:45.556Z,29.95
2018-05-27T11:42:52.333Z,29.66
2018-05-27T11:43:59.678Z,29.52
2018-05-27T11:45:07.547Z,29.46
2018-05-27T11:46:15.319Z,29.49
2018-05-27T11:47:23.558Z,29.52
2018-05-27T11:48:31.117Z,29.46
2018-05-27T11:49:39.065Z,29.45
2018-05-27T11:50:47.041Z,29.39
2018-05-27T11:51:55.077Z,29.23
2018-05-27T11:53:03.080Z,29.05
2018-05-27T11:54:11.139Z,29.07
2018-05-27T11:55:19.188Z,29.17
2018-05-27T11:56:27.260Z,29.18
2018-05-27T11:57:35.761Z,29.34
2018-05-27T11:58:43.181Z,29.40
2018-05-27T11:59:51.040Z,29.33
2018-05-27T12:00:59.837Z,29.34
2018-05-27T12:02:06.852Z,29.47
2018-05-27T12:03:14.590Z,29.82
2018-05-27T12:04:23.061Z,30.41
2018-05-27T12:05:31.038Z,31.02
2018-05-27T12:06:39.163Z,31.14
2018-05-27T12:07:47.244Z,31.10
2018-05-27T12:08:54.814Z,30.98
2018-05-27T12:10:02.874Z,31.32
2018-05-27T12:11:10.926Z,31.74
2018-05-27T12:12:18.996Z,32.00
2018-05-27T12:13:27.047Z,31.94
2018-05-27T12:14:34.894Z,31.88
2018-05-27T12:15:42.827Z,31.99
2018-05-27T12:16:50.760Z,31.83
2018-05-27T12:17:58.593Z,31.94
2018-05-27T12:19:06.452Z,32.21
2018-05-27T12:20:14.302Z,32.62
2018-05-27T12:21:22.156Z,33.05
2018-05-27T12:22:30.054Z,33.51
2018-05-27T12:23:38.015Z,33.57
2018-05-27T12:24:46.529Z,33.75
2018-05-27T12:25:54.128Z,33.87
2018-05-27T12:27:02.266Z,34.02
2018-05-27T12:28:10.430Z,34.40
2018-05-27T12:29:18.671Z,34.47
2018-05-27T12:30:26.938Z,34.77
2018-05-27T12:31:35.203Z,34.79
2018-05-27T12:32:43.366Z,34.95
2018-05-27T12:33:51.804Z,34.60
2018-05-27T12:34:59.648Z,34.56
2018-05-27T12:36:07.756Z,34.64
2018-05-27T12:37:15.845Z,34.53
2018-05-27T12:38:23.857Z,34.55
2018-05-27T12:39:31.821Z,34.44
2018-05-27T12:40:39.772Z,34.31
2018-05-27T12:41:47.710Z,34.20
2018-05-27T12:42:55.564Z,34.02
2018-05-27T12:44:03.896Z,33.64
2018-05-27T12:45:11.230Z,33.40
2018-05-27T12:46:19.029Z,33.25
2018-05-27T12:47:26.823Z,33.27
2018-05-27T12:49:43.310Z,33.29
2018-05-27T12:50:50.074Z,33.10
2018-05-27T12:51:57.955Z,33.06
2018-05-27T12:53:05.568Z,33.26
2018-05-27T12:54:13.296Z,33.51
2018-05-27T12:55:21.047Z,33.53
2018-05-27T12:56:28.789Z,33.65
2018-05-27T12:57:36.591Z,33.79
2018-05-27T12:58:44.408Z,34.01
2018-05-27T12:59:52.230Z,34.22
2018-05-27T13:01:00.499Z,34.16
2018-05-27T13:02:07.780Z,34.18
2018-05-27T13:03:15.488Z,34.09
2018-05-27T13:04:23.151Z,34.16
2018-05-27T13:05:30.814Z,33.97
2018-05-27T13:06:38.493Z,34.10
2018-05-27T13:07:46.084Z,34.19
2018-05-27T13:08:53.734Z,34.26
2018-05-27T13:10:01.347Z,34.29
2018-05-27T13:11:09.034Z,34.08
2018-05-27T13:12:17.268Z,33.90
2018-05-27T13:13:24.504Z,33.86
2018-05-27T13:14:32.270Z,33.89
2018-05-27T13:15:40.066Z,34.00
2018-05-27T13:16:48.122Z,34.32
2018-05-27T13:17:55.776Z,34.52
2018-05-27T13:19:03.667Z,34.62
2018-05-27T13:20:11.557Z,34.55
2018-05-27T13:21:19.537Z,34.64
2018-05-27T13:22:27.337Z,34.57
2018-05-27T13:23:35.622Z,34.28
2018-05-27T13:24:43.414Z,34.13
2018-05-27T13:25:50.672Z,33.99
2018-05-27T13:26:59.933Z,33.90
2018-05-27T13:28:06.674Z,33.94
2018-05-27T13:29:13.872Z,33.67
2018-05-27T13:30:22.102Z,33.62
2018-05-27T13:31:29.323Z,33.62
2018-05-27T13:32:37.118Z,33.62
2018-05-27T13:33:45.882Z,33.71
2018-05-27T13:34:52.692Z,33.86
2018-05-27T13:36:01.022Z,34.03
2018-05-27T13:37:08.903Z,33.76
2018-05-27T13:38:16.703Z,33.91
2018-05-27T13:39:24.520Z,33.85
2018-05-27T13:40:31.842Z,33.93
2018-05-27T13:41:39.835Z,34.04
2018-05-27T13:42:47.518Z,34.10
2018-05-27T13:43:56.359Z,34.13
2018-05-27T13:45:04.796Z,34.19
2018-05-27T13:46:11.185Z,33.87
2018-05-27T13:47:19.316Z,33.68
2018-05-27T13:48:27.044Z,33.69
2018-05-27T13:49:35.012Z,33.61
2018-05-27T13:50:43.526Z,33.51
2018-05-27T13:51:51.545Z,33.66
2018-05-27T13:52:58.993Z,33.81
2018-05-27T13:54:07.020Z,33.60
2018-05-27T13:55:15.093Z,33.76
2018-05-27T13:56:23.627Z,33.73
2018-05-27T13:57:31.207Z,33.60
2018-05-27T13:58:39.260Z,33.50
2018-05-27T13:59:47.362Z,33.72
2018-05-27T14:00:55.465Z,34.24
2018-05-27T14:02:04.114Z,34.65
2018-05-27T14:03:11.723Z,34.95
2018-05-27T14:04:21.366Z,35.19
2018-05-27T14:05:28.059Z,35.21
2018-05-27T14:06:36.213Z,35.27
2018-05-27T14:07:44.404Z,35.50
2018-05-27T14:08:52.500Z,35.59
2018-05-27T14:10:01.119Z,35.41
2018-05-27T14:11:08.733Z,35.24
2018-05-27T14:12:17.558Z,35.04
2018-05-27T14:13:24.833Z,34.54
2018-05-27T14:14:33.297Z,34.14
2018-05-27T14:15:40.759Z,33.86
2018-05-27T14:16:48.663Z,33.74
2018-05-27T14:17:56.547Z,33.63
2018-05-27T14:19:04.378Z,33.72
2018-05-27T14:20:12.235Z,33.59
2018-05-27T14:21:20.070Z,33.60
2018-05-27T14:22:27.924Z,33.61